createdAt,value
2023-09-27T00:00:22.433Z,95.41
2023-09-27T00:01:23.014Z,95.51
2023-09-27T00:02:22.465Z,95.62
2023-09-27T00:03:22.506Z,95.31
2023-09-27T00:04:22.480Z,95.41
2023-09-27T00:05:22.549Z,95.51
2023-09-27T00:06:22.405Z,95.31
2023-09-27T00:07:22.490Z,96.23
2023-09-27T00:08:22.433Z,95.31
2023-09-27T00:09:22.371Z,95.72
2023-09-27T00:10:22.394Z,95.51
2023-09-27T00:11:22.446Z,95.21
2023-09-27T00:12:22.931Z,94.50
2023-09-27T00:13:22.367Z,94.80
2023-09-27T00:14:22.411Z,94.24
2023-09-27T00:15:22.378Z,95.05
2023-09-27T00:16:22.356Z,94.95
2023-09-27T00:17:22.353Z,94.13
2023-09-27T00:18:22.436Z,93.37
2023-09-27T00:19:22.305Z,93.06
2023-09-27T00:20:22.383Z,93.57
2023-09-27T00:21:22.312Z,94.28
2023-09-27T00:22:22.297Z,94.08
2023-09-27T00:23:22.865Z,93.63
2023-09-27T00:24:22.280Z,93.87
2023-09-27T00:25:22.290Z,93.26
2023-09-27T00:26:22.390Z,93.26
2023-09-27T00:27:22.258Z,93.16
2023-09-27T00:28:22.263Z,93.52
2023-09-27T00:29:22.326Z,93.02
2023-09-27T00:30:22.241Z,93.22
2023-09-27T00:31:22.284Z,92.91
2023-09-27T00:32:22.275Z,93.22
2023-09-27T00:33:22.282Z,91.60
2023-09-27T00:34:22.778Z,91.60
2023-09-27T00:35:22.272Z,91.39
2023-09-27T00:36:22.205Z,91.49
2023-09-27T00:37:22.186Z,91.65
2023-09-27T00:38:22.222Z,91.65
2023-09-27T00:39:22.177Z,91.75
2023-09-27T00:40:22.201Z,91.35
2023-09-27T00:41:22.210Z,91.45
2023-09-27T00:42:22.156Z,91.86
2023-09-27T00:43:22.162Z,92.36
2023-09-27T00:44:22.171Z,91.05
2023-09-27T00:45:22.714Z,91.55
2023-09-27T00:46:22.188Z,91.45
2023-09-27T00:47:22.153Z,91.55
2023-09-27T00:48:22.142Z,91.35
2023-09-27T00:49:22.102Z,91.45
2023-09-27T00:50:22.267Z,91.05
2023-09-27T00:51:22.098Z,91.45
2023-09-27T00:52:22.109Z,90.84
2023-09-27T00:53:22.131Z,91.55
2023-09-27T00:54:22.081Z,91.96
2023-09-27T00:55:22.137Z,92.82
2023-09-27T00:56:22.116Z,93.12
2023-09-27T00:57:22.059Z,94.34
2023-09-27T00:58:22.061Z,93.87
2023-09-27T00:59:22.080Z,94.08
2023-09-27T01:00:22.040Z,94.18
2023-09-27T01:01:22.074Z,94.38
2023-09-27T01:02:22.074Z,94.69
2023-09-27T01:03:22.042Z,94.89
2023-09-27T01:04:22.033Z,94.79
2023-09-27T01:05:22.101Z,94.38
2023-09-27T01:06:22.042Z,93.77
2023-09-27T01:07:22.556Z,93.93
2023-09-27T01:08:22.010Z,93.83
2023-09-27T01:09:21.972Z,92.82
2023-09-27T01:10:21.979Z,93.02
2023-09-27T01:11:22.017Z,92.41
2023-09-27T01:12:21.980Z,92.91
2023-09-27T01:13:22.147Z,92.61
2023-09-27T01:14:21.975Z,92.82
2023-09-27T01:15:21.956Z,92.77
2023-09-27T01:16:21.949Z,92.26
2023-09-27T01:17:21.934Z,92.00
2023-09-27T01:18:21.982Z,91.14
2023-09-27T01:19:21.913Z,90.88
2023-09-27T01:20:21.965Z,91.60
2023-09-27T01:21:21.916Z,92.65
2023-09-27T01:22:21.927Z,93.92
2023-09-27T01:23:21.927Z,93.82
2023-09-27T01:24:21.936Z,94.98
2023-09-27T01:25:21.876Z,94.84
2023-09-27T01:26:21.937Z,95.24
2023-09-27T01:27:21.859Z,95.59
2023-09-27T01:28:21.856Z,96.30
2023-09-27T01:29:21.889Z,96.41
2023-09-27T01:30:21.849Z,96.61
2023-09-27T01:31:21.842Z,96.20
2023-09-27T01:32:21.964Z,96.81
2023-09-27T01:33:21.837Z,96.61
2023-09-27T01:34:21.820Z,97.42
2023-09-27T01:35:21.868Z,97.22
2023-09-27T01:36:21.866Z,96.81
2023-09-27T01:37:21.795Z,96.92
2023-09-27T01:38:21.846Z,96.56
2023-09-27T01:39:21.779Z,96.41
2023-09-27T01:40:21.801Z,96.41
2023-09-27T01:41:21.785Z,96.92
2023-09-27T01:42:21.764Z,96.51
2023-09-27T01:43:21.737Z,96.61
2023-09-27T01:44:21.765Z,96.41
2023-09-27T01:45:21.757Z,96.10
2023-09-27T01:46:21.762Z,95.85
2023-09-27T01:47:21.720Z,96.15
2023-09-27T01:48:21.733Z,95.50
2023-09-27T01:49:21.709Z,94.89
2023-09-27T01:50:21.715Z,94.53
2023-09-27T01:51:21.793Z,93.98
2023-09-27T01:52:21.688Z,94.73
2023-09-27T01:53:21.731Z,94.73
2023-09-27T01:54:21.689Z,94.84
2023-09-27T01:55:21.644Z,94.48
2023-09-27T01:56:21.679Z,94.73
2023-09-27T01:57:21.657Z,94.63
2023-09-27T01:58:21.626Z,94.02
2023-09-27T01:59:21.715Z,92.90
2023-09-27T02:00:21.633Z,92.45
2023-09-27T02:01:21.610Z,93.01
2023-09-27T02:02:22.089Z,91.74
2023-09-27T02:03:21.703Z,91.78
2023-09-27T02:04:21.594Z,91.68
2023-09-27T02:05:21.719Z,91.94
2023-09-27T02:06:21.592Z,91.64
2023-09-27T02:07:21.591Z,92.19
2023-09-27T02:08:21.625Z,92.19
2023-09-27T02:09:21.562Z,91.74
2023-09-27T02:10:21.570Z,91.48
2023-09-27T02:11:21.649Z,92.19
2023-09-27T02:12:21.563Z,92.14
2023-09-27T02:13:21.557Z,92.14
2023-09-27T02:14:21.548Z,92.14
2023-09-27T02:15:21.504Z,92.35
2023-09-27T02:16:21.628Z,91.48
2023-09-27T02:17:21.558Z,91.03
2023-09-27T02:18:21.490Z,91.74
2023-09-27T02:19:21.522Z,91.07
2023-09-27T02:20:21.554Z,91.27
2023-09-27T02:21:21.461Z,91.27
2023-09-27T02:22:21.476Z,90.86
2023-09-27T02:23:21.479Z,90.05
2023-09-27T02:24:21.974Z,90.16
2023-09-27T02:25:21.460Z,90.62
2023-09-27T02:26:21.507Z,90.11
2023-09-27T02:27:21.434Z,90.05
2023-09-27T02:28:21.430Z,89.95
2023-09-27T02:29:21.479Z,89.95
2023-09-27T02:30:21.421Z,90.56
2023-09-27T02:31:21.436Z,90.56
2023-09-27T02:32:21.446Z,90.56
2023-09-27T02:33:21.414Z,90.46
2023-09-27T02:34:21.375Z,90.25
2023-09-27T02:35:21.737Z,90.81
2023-09-27T02:36:21.368Z,90.77
2023-09-27T02:37:21.349Z,90.77
2023-09-27T02:38:21.394Z,90.86
2023-09-27T02:39:21.355Z,91.07
2023-09-27T02:40:21.363Z,91.58
2023-09-27T02:41:21.362Z,91.52
2023-09-27T02:42:21.354Z,92.13
2023-09-27T02:43:21.313Z,92.48
2023-09-27T02:44:21.343Z,92.33
2023-09-27T02:45:21.307Z,93.05
2023-09-27T02:46:21.324Z,92.84
2023-09-27T02:47:21.361Z,93.15
2023-09-27T02:48:21.319Z,93.05
2023-09-27T02:49:21.324Z,92.74
2023-09-27T02:50:21.320Z,92.74
2023-09-27T02:51:21.256Z,92.54
2023-09-27T02:52:21.262Z,91.78
2023-09-27T02:53:21.296Z,91.72
2023-09-27T02:54:21.254Z,91.99
2023-09-27T02:55:21.227Z,91.99
2023-09-27T02:56:21.246Z,92.09
2023-09-27T02:57:21.538Z,91.78
2023-09-27T02:58:21.236Z,92.19
2023-09-27T02:59:21.229Z,91.31
2023-09-27T03:00:21.237Z,91.22
2023-09-27T03:01:21.267Z,91.68
2023-09-27T03:02:21.253Z,91.42
2023-09-27T03:03:21.345Z,91.68
2023-09-27T03:04:21.160Z,92.44
2023-09-27T03:05:21.182Z,91.62
2023-09-27T03:06:21.143Z,92.13
2023-09-27T03:07:21.156Z,92.89
2023-09-27T03:08:21.196Z,93.09
2023-09-27T03:09:21.135Z,93.60
2023-09-27T03:10:21.118Z,93.54
2023-09-27T03:11:21.144Z,93.54
2023-09-27T03:12:21.144Z,94.11
2023-09-27T03:13:21.113Z,94.01
2023-09-27T03:14:21.441Z,94.11
2023-09-27T03:15:21.095Z,94.42
2023-09-27T03:16:21.078Z,94.01
2023-09-27T03:17:21.119Z,94.31
2023-09-27T03:18:21.124Z,93.90
2023-09-27T03:19:21.118Z,94.11
2023-09-27T03:20:21.540Z,94.21
2023-09-27T03:21:21.036Z,93.80
2023-09-27T03:22:21.053Z,92.93
2023-09-27T03:23:21.041Z,93.33
2023-09-27T03:24:21.038Z,93.59
2023-09-27T03:25:21.027Z,93.69
2023-09-27T03:26:21.045Z,94.09
2023-09-27T03:27:21.028Z,95.36
2023-09-27T03:28:21.003Z,95.16
2023-09-27T03:29:21.016Z,96.38
2023-09-27T03:30:21.412Z,96.18
2023-09-27T03:31:21.096Z,96.53
2023-09-27T03:32:21.056Z,97.04
2023-09-27T03:33:21.006Z,97.34
2023-09-27T03:34:20.961Z,97.96
2023-09-27T03:35:21.040Z,97.55
2023-09-27T03:36:20.989Z,97.96
2023-09-27T03:37:20.952Z,97.75
2023-09-27T03:38:21.006Z,98.47
2023-09-27T03:39:20.922Z,98.22
2023-09-27T03:40:20.910Z,98.77
2023-09-27T03:41:20.988Z,98.27
2023-09-27T03:42:20.910Z,98.57
2023-09-27T03:43:20.882Z,98.36
2023-09-27T03:44:20.913Z,97.24
2023-09-27T03:45:20.885Z,97.34
2023-09-27T03:46:20.945Z,97.24
2023-09-27T03:47:20.970Z,96.88
2023-09-27T03:48:21.094Z,97.08
2023-09-27T03:49:20.849Z,96.78
2023-09-27T03:50:20.915Z,96.68
2023-09-27T03:51:20.830Z,96.43
2023-09-27T03:52:21.390Z,96.33
2023-09-27T03:53:20.883Z,96.43
2023-09-27T03:54:20.806Z,96.63
2023-09-27T03:55:20.817Z,96.84
2023-09-27T03:56:20.831Z,96.89
2023-09-27T03:57:20.792Z,96.63
2023-09-27T03:58:20.792Z,95.81
2023-09-27T03:59:20.876Z,95.00
2023-09-27T04:00:21.798Z,95.00
2023-09-27T04:01:20.824Z,95.67
2023-09-27T04:02:20.797Z,96.02
2023-09-27T04:03:21.433Z,96.43
2023-09-27T04:04:20.806Z,95.72
2023-09-27T04:05:20.775Z,96.63
2023-09-27T04:06:20.733Z,96.63
2023-09-27T04:07:20.734Z,96.22
2023-09-27T04:08:20.748Z,96.58
2023-09-27T04:09:20.720Z,96.63
2023-09-27T04:10:20.724Z,97.19
2023-09-27T04:11:20.718Z,98.11
2023-09-27T04:12:20.711Z,98.93
2023-09-27T04:13:20.689Z,99.27
2023-09-27T04:14:21.152Z,99.84
2023-09-27T04:15:20.665Z,99.99
2023-09-27T04:16:20.684Z,99.99
2023-09-27T04:17:20.671Z,99.99
2023-09-27T04:18:20.753Z,99.99
2023-09-27T04:19:20.649Z,99.99
2023-09-27T04:20:20.742Z,99.99
2023-09-27T04:21:20.625Z,99.99
2023-09-27T04:22:20.679Z,99.99
2023-09-27T04:23:20.618Z,99.99
2023-09-27T04:24:20.602Z,99.99
2023-09-27T04:25:21.070Z,99.99
2023-09-27T04:26:20.636Z,99.99
2023-09-27T04:27:20.594Z,99.99
2023-09-27T04:28:20.576Z,99.99
2023-09-27T04:29:20.625Z,99.99
2023-09-27T04:30:20.653Z,99.99
2023-09-27T04:31:20.705Z,99.99
2023-09-27T04:32:20.609Z,99.99
2023-09-27T04:33:20.598Z,99.99
2023-09-27T04:34:20.573Z,99.99
2023-09-27T04:35:20.653Z,99.99
2023-09-27T04:36:21.081Z,99.99
2023-09-27T04:37:20.533Z,99.99
2023-09-27T04:38:20.541Z,99.99
2023-09-27T04:39:20.502Z,99.99
2023-09-27T04:40:20.529Z,99.99
2023-09-27T04:41:20.508Z,99.99
2023-09-27T04:42:20.800Z,99.99
2023-09-27T04:43:20.508Z,99.99
2023-09-27T04:44:20.497Z,99.99
2023-09-27T04:45:20.460Z,99.99
2023-09-27T04:46:20.521Z,99.99
2023-09-27T04:47:20.538Z,99.95
2023-09-27T04:48:20.451Z,99.99
2023-09-27T04:49:20.450Z,99.99
2023-09-27T04:50:20.466Z,99.64
2023-09-27T04:51:20.436Z,99.54
2023-09-27T04:52:20.446Z,99.84
2023-09-27T04:53:20.445Z,99.95
2023-09-27T04:54:20.413Z,99.49
2023-09-27T04:55:20.405Z,99.90
2023-09-27T04:56:20.409Z,99.39
2023-09-27T04:57:20.391Z,99.99
2023-09-27T04:58:20.868Z,99.18
2023-09-27T04:59:20.399Z,98.68
2023-09-27T05:00:21.171Z,98.16
2023-09-27T05:01:20.383Z,97.39
2023-09-27T05:02:20.372Z,97.39
2023-09-27T05:03:20.454Z,97.34
2023-09-27T05:04:20.406Z,98.00
2023-09-27T05:05:20.440Z,98.31
2023-09-27T05:06:20.349Z,98.27
2023-09-27T05:07:20.374Z,98.77
2023-09-27T05:08:20.339Z,98.57
2023-09-27T05:09:20.766Z,98.36
2023-09-27T05:10:20.307Z,98.88
2023-09-27T05:11:20.303Z,98.57
2023-09-27T05:12:20.289Z,98.47
2023-09-27T05:13:20.266Z,98.68
2023-09-27T05:14:20.329Z,98.47
2023-09-27T05:15:20.628Z,98.73
2023-09-27T05:16:20.332Z,98.63
2023-09-27T05:17:20.243Z,98.83
2023-09-27T05:18:20.282Z,98.02
2023-09-27T05:19:20.242Z,98.32
2023-09-27T05:20:20.602Z,97.61
2023-09-27T05:21:20.225Z,97.25
2023-09-27T05:22:20.227Z,96.75
2023-09-27T05:23:20.246Z,97.56
2023-09-27T05:24:20.195Z,97.71
2023-09-27T05:25:20.265Z,96.89
2023-09-27T05:26:20.301Z,97.00
2023-09-27T05:27:20.192Z,97.20
2023-09-27T05:28:20.152Z,96.63
2023-09-27T05:29:20.215Z,97.14
2023-09-27T05:30:20.144Z,97.00
2023-09-27T05:31:20.813Z,96.84
2023-09-27T05:32:20.191Z,97.71
2023-09-27T05:33:20.170Z,97.40
2023-09-27T05:34:20.125Z,97.40
2023-09-27T05:35:20.154Z,97.30
2023-09-27T05:36:20.121Z,97.09
2023-09-27T05:37:20.098Z,97.30
2023-09-27T05:38:20.190Z,97.25
2023-09-27T05:39:20.092Z,96.95
2023-09-27T05:40:20.071Z,97.25
2023-09-27T05:41:20.116Z,96.84
2023-09-27T05:42:20.084Z,96.23
2023-09-27T05:43:20.054Z,96.54
2023-09-27T05:44:20.118Z,96.59
2023-09-27T05:45:20.042Z,96.48
2023-09-27T05:46:20.075Z,96.69
2023-09-27T05:47:20.069Z,97.40
2023-09-27T05:48:20.036Z,97.65
2023-09-27T05:49:20.021Z,97.86
2023-09-27T05:50:20.034Z,97.96
2023-09-27T05:51:20.026Z,97.75
2023-09-27T05:52:19.996Z,98.43
2023-09-27T05:53:20.640Z,98.32
2023-09-27T05:54:20.000Z,98.22
2023-09-27T05:55:19.975Z,98.43
2023-09-27T05:56:20.060Z,98.11
2023-09-27T05:57:19.959Z,98.43
2023-09-27T05:58:19.975Z,98.43
2023-09-27T05:59:20.067Z,98.83
2023-09-27T06:00:19.955Z,98.88
2023-09-27T06:01:19.995Z,98.77
2023-09-27T06:02:19.930Z,98.68
2023-09-27T06:03:19.959Z,98.98
2023-09-27T06:04:20.401Z,98.68
2023-09-27T06:05:19.972Z,98.98
2023-09-27T06:06:19.901Z,98.98
2023-09-27T06:07:19.886Z,99.13
2023-09-27T06:08:19.914Z,99.08
2023-09-27T06:09:19.882Z,99.33
2023-09-27T06:10:19.909Z,99.43
2023-09-27T06:11:19.984Z,98.97
2023-09-27T06:12:19.852Z,99.99
2023-09-27T06:13:19.853Z,99.99
2023-09-27T06:14:19.850Z,99.99
2023-09-27T06:15:20.161Z,99.99
2023-09-27T06:16:19.891Z,99.99
2023-09-27T06:17:19.905Z,99.99
2023-09-27T06:18:19.892Z,99.99
2023-09-27T06:19:19.843Z,99.99
2023-09-27T06:20:19.827Z,99.95
2023-09-27T06:21:19.791Z,99.99
2023-09-27T06:22:19.802Z,99.99
2023-09-27T06:23:19.823Z,99.99
2023-09-27T06:24:19.767Z,99.99
2023-09-27T06:25:19.775Z,99.99
2023-09-27T06:26:20.640Z,99.54
2023-09-27T06:27:19.755Z,98.88
2023-09-27T06:28:19.750Z,98.98
2023-09-27T06:29:19.799Z,98.98
2023-09-27T06:30:19.733Z,99.18
2023-09-27T06:31:19.810Z,99.74
2023-09-27T06:32:19.739Z,99.95
2023-09-27T06:33:19.724Z,99.90
2023-09-27T06:34:19.698Z,99.99
2023-09-27T06:35:19.748Z,99.99
2023-09-27T06:36:19.708Z,99.99
2023-09-27T06:37:19.718Z,99.99
2023-09-27T06:38:19.716Z,99.99
2023-09-27T06:39:19.663Z,99.99
2023-09-27T06:40:19.646Z,99.99
2023-09-27T06:41:19.793Z,99.99
2023-09-27T06:42:19.697Z,99.70
2023-09-27T06:43:19.627Z,98.73
2023-09-27T06:44:19.689Z,98.83
2023-09-27T06:45:19.608Z,99.24
2023-09-27T06:46:19.649Z,99.44
2023-09-27T06:47:19.691Z,99.04
2023-09-27T06:48:20.247Z,98.83
2023-09-27T06:49:19.599Z,99.04
2023-09-27T06:50:19.619Z,99.54
2023-09-27T06:51:19.560Z,99.60
2023-09-27T06:52:19.579Z,99.60
2023-09-27T06:53:22.494Z,99.50
2023-09-27T06:54:20.571Z,99.29
2023-09-27T06:55:19.573Z,98.89
2023-09-27T06:56:19.590Z,98.64
2023-09-27T06:57:19.524Z,98.48
2023-09-27T06:58:19.558Z,98.33
2023-09-27T06:59:19.561Z,98.38
2023-09-27T07:00:19.519Z,97.21
2023-09-27T07:01:19.530Z,98.13
2023-09-27T07:02:19.549Z,97.82
2023-09-27T07:03:19.575Z,97.21
2023-09-27T07:04:19.533Z,96.80
2023-09-27T07:05:19.522Z,96.19
2023-09-27T07:06:19.494Z,96.30
2023-09-27T07:07:19.472Z,95.89
2023-09-27T07:08:19.498Z,96.60
2023-09-27T07:09:19.442Z,96.45
2023-09-27T07:10:19.492Z,95.58
2023-09-27T07:11:19.456Z,94.76
2023-09-27T07:12:19.422Z,94.91
2023-09-27T07:13:19.429Z,94.71
2023-09-27T07:14:19.469Z,95.12
2023-09-27T07:15:19.402Z,94.71
2023-09-27T07:16:19.440Z,95.36
2023-09-27T07:17:19.452Z,96.18
2023-09-27T07:18:19.519Z,95.73
2023-09-27T07:19:19.424Z,96.08
2023-09-27T07:20:19.453Z,95.93
2023-09-27T07:21:19.399Z,96.54
2023-09-27T07:22:19.362Z,96.23
2023-09-27T07:23:19.417Z,96.50
2023-09-27T07:24:19.384Z,96.19
2023-09-27T07:25:19.360Z,96.45
2023-09-27T07:26:19.353Z,95.23
2023-09-27T07:27:19.343Z,96.45
2023-09-27T07:28:19.309Z,96.35
2023-09-27T07:29:19.347Z,95.79
2023-09-27T07:30:19.337Z,96.00
2023-09-27T07:31:19.695Z,96.10
2023-09-27T07:32:19.368Z,96.15
2023-09-27T07:33:19.304Z,97.67
2023-09-27T07:34:19.267Z,97.27
2023-09-27T07:35:19.328Z,97.73
2023-09-27T07:36:19.261Z,98.03
2023-09-27T07:37:19.257Z,98.44
2023-09-27T07:38:19.305Z,97.42
2023-09-27T07:39:19.241Z,97.07
2023-09-27T07:40:19.273Z,97.07
2023-09-27T07:41:19.237Z,96.58
2023-09-27T07:42:19.216Z,96.17
2023-09-27T07:43:19.239Z,95.86
2023-09-27T07:44:19.305Z,94.60
2023-09-27T07:45:19.205Z,93.99
2023-09-27T07:46:19.233Z,93.89
2023-09-27T07:47:19.232Z,93.13
2023-09-27T07:48:19.326Z,93.07
2023-09-27T07:49:19.172Z,92.97
2023-09-27T07:50:19.184Z,92.30
2023-09-27T07:51:19.162Z,92.41
2023-09-27T07:52:19.145Z,93.26
2023-09-27T07:53:19.182Z,94.12
2023-09-27T07:54:19.230Z,93.92
2023-09-27T07:55:19.230Z,94.73
2023-09-27T07:56:19.194Z,96.11
2023-09-27T07:57:19.128Z,95.70
2023-09-27T07:58:19.158Z,95.46
2023-09-27T07:59:19.140Z,95.92
2023-09-27T08:00:19.108Z,94.66
2023-09-27T08:01:19.138Z,94.25
2023-09-27T08:02:19.420Z,93.74
2023-09-27T08:03:19.276Z,92.28
2023-09-27T08:04:19.173Z,91.47
2023-09-27T08:05:19.142Z,89.90
2023-09-27T08:06:19.064Z,89.50
2023-09-27T08:07:19.050Z,90.71
2023-09-27T08:08:19.094Z,91.83
2023-09-27T08:09:35.039Z,91.22
2023-09-27T08:10:21.863Z,90.77
2023-09-27T08:11:19.074Z,89.59
2023-09-27T08:12:19.029Z,89.29
2023-09-27T08:13:19.010Z,90.11
2023-09-27T08:14:19.024Z,89.33
2023-09-27T08:15:19.423Z,89.48
2023-09-27T08:16:19.497Z,92.06
2023-09-27T08:17:19.051Z,92.52
2023-09-27T08:18:19.167Z,93.03
2023-09-27T08:19:18.985Z,92.42
2023-09-27T08:20:19.008Z,92.12
2023-09-27T08:21:18.947Z,92.68
2023-09-27T08:22:18.941Z,92.07
2023-09-27T08:23:18.976Z,92.28
2023-09-27T08:24:18.951Z,91.93
2023-09-27T08:25:18.951Z,89.80
2023-09-27T08:26:18.966Z,89.65
2023-09-27T08:27:18.936Z,89.80
2023-09-27T08:28:18.905Z,89.59
2023-09-27T08:29:18.910Z,89.86
2023-09-27T08:30:18.899Z,88.95
2023-09-27T08:31:18.963Z,89.15
2023-09-27T08:32:18.934Z,89.35
2023-09-27T08:33:18.943Z,88.95
2023-09-27T08:34:18.883Z,89.01
2023-09-27T08:35:18.892Z,88.46
2023-09-27T08:36:18.840Z,88.66
2023-09-27T08:37:18.850Z,89.02
2023-09-27T08:38:19.320Z,88.72
2023-09-27T08:39:18.820Z,88.48
2023-09-27T08:40:18.837Z,86.82
2023-09-27T08:41:18.826Z,86.57
2023-09-27T08:42:18.795Z,84.91
2023-09-27T08:43:18.802Z,84.17
2023-09-27T08:44:18.828Z,83.26
2023-09-27T08:45:18.792Z,83.66
2023-09-27T08:46:18.805Z,82.95
2023-09-27T08:47:18.808Z,83.09
2023-09-27T08:48:18.813Z,84.19
2023-09-27T08:49:18.780Z,86.35
2023-09-27T08:50:18.841Z,87.05
2023-09-27T08:51:18.756Z,86.55
2023-09-27T08:52:18.737Z,86.59
2023-09-27T08:53:18.811Z,87.30
2023-09-27T08:54:18.753Z,88.62
2023-09-27T08:55:18.750Z,89.26
2023-09-27T08:56:18.775Z,90.44
2023-09-27T08:57:18.693Z,89.73
2023-09-27T08:58:18.685Z,88.88
2023-09-27T08:59:18.748Z,88.48
2023-09-27T09:00:18.782Z,88.07
2023-09-27T09:01:18.695Z,87.46
2023-09-27T09:02:18.675Z,87.05
2023-09-27T09:03:18.783Z,88.27
2023-09-27T09:04:18.711Z,89.23
2023-09-27T09:05:18.684Z,89.26
2023-09-27T09:06:18.733Z,90.03
2023-09-27T09:07:18.632Z,90.30
2023-09-27T09:08:26.355Z,89.54
2023-09-27T09:09:19.640Z,89.14
2023-09-27T09:10:18.604Z,88.35
2023-09-27T09:11:19.423Z,87.04
2023-09-27T09:12:18.591Z,86.59
2023-09-27T09:13:18.600Z,86.04
2023-09-27T09:14:18.651Z,85.24
2023-09-27T09:15:18.609Z,84.89
2023-09-27T09:16:18.613Z,83.84
2023-09-27T09:17:18.607Z,83.80
2023-09-27T09:18:18.592Z,83.00
2023-09-27T09:19:26.125Z,82.43
2023-09-27T09:20:19.569Z,84.09
2023-09-27T09:21:18.549Z,84.95
2023-09-27T09:22:18.593Z,84.35
2023-09-27T09:23:18.590Z,83.24
2023-09-27T09:24:18.508Z,83.74
2023-09-27T09:25:18.523Z,84.11
2023-09-27T09:26:18.516Z,82.65
2023-09-27T09:27:18.774Z,82.48
2023-09-27T09:28:18.499Z,80.57
2023-09-27T09:29:18.535Z,80.57
2023-09-27T09:30:18.514Z,80.39
2023-09-27T09:31:18.546Z,80.69
2023-09-27T09:32:18.506Z,79.64
2023-09-27T09:33:18.746Z,78.47
2023-09-27T09:34:18.455Z,80.36
2023-09-27T09:35:18.498Z,81.91
2023-09-27T09:36:18.435Z,82.59
2023-09-27T09:37:18.443Z,83.66
2023-09-27T09:38:18.490Z,82.76
2023-09-27T09:39:18.574Z,82.35
2023-09-27T09:40:18.582Z,81.37
2023-09-27T09:41:18.463Z,82.68
2023-09-27T09:42:18.388Z,80.99
2023-09-27T09:43:18.395Z,78.90
2023-09-27T09:44:18.409Z,77.29
2023-09-27T09:45:18.394Z,77.66
2023-09-27T09:46:18.415Z,76.38
2023-09-27T09:47:18.370Z,75.38
2023-09-27T09:48:18.363Z,75.34
2023-09-27T09:49:18.384Z,75.04
2023-09-27T09:50:18.658Z,74.74
2023-09-27T09:51:18.344Z,74.94
2023-09-27T09:52:18.327Z,75.01
2023-09-27T09:53:18.320Z,74.30
2023-09-27T09:54:18.330Z,74.20
2023-09-27T09:55:26.331Z,73.67
2023-09-27T09:57:28.001Z,73.43
2023-09-27T09:58:19.311Z,71.89
2023-09-27T09:59:18.308Z,71.66
2023-09-27T10:00:18.272Z,72.46
2023-09-27T10:01:18.257Z,71.36
2023-09-27T10:02:18.341Z,71.89
2023-09-27T10:03:18.382Z,71.92
2023-09-27T10:04:18.318Z,69.36
2023-09-27T10:05:18.275Z,67.70
2023-09-27T10:06:18.705Z,66.77
2023-09-27T10:07:18.225Z,65.97
2023-09-27T10:08:18.228Z,65.64
2023-09-27T10:09:18.286Z,64.97
2023-09-27T10:10:18.333Z,66.63
2023-09-27T10:11:18.199Z,68.33
2023-09-27T10:12:18.401Z,66.24
2023-09-27T10:13:18.170Z,67.73
2023-09-27T10:14:18.246Z,66.33
2023-09-27T10:15:18.167Z,67.26
2023-09-27T10:16:18.173Z,66.77
2023-09-27T10:17:18.744Z,65.77
2023-09-27T10:18:18.221Z,67.13
2023-09-27T10:19:18.297Z,67.10
2023-09-27T10:20:18.156Z,65.37
2023-09-27T10:21:18.143Z,65.24
2023-09-27T10:22:18.128Z,64.34
2023-09-27T10:23:18.167Z,64.45
2023-09-27T10:24:18.116Z,64.97
2023-09-27T10:25:18.101Z,65.77
2023-09-27T10:26:18.165Z,64.87
2023-09-27T10:27:18.123Z,65.47
2023-09-27T10:28:18.685Z,65.21
2023-09-27T10:29:18.159Z,63.36
2023-09-27T10:30:18.062Z,61.88
2023-09-27T10:31:18.097Z,62.10
2023-09-27T10:32:18.114Z,62.40
2023-09-27T10:33:18.175Z,62.15
2023-09-27T10:34:18.099Z,61.02
2023-09-27T10:35:18.148Z,60.47
2023-09-27T10:36:18.089Z,59.65
2023-09-27T10:37:19.756Z,57.81
2023-09-27T10:38:18.045Z,57.24
2023-09-27T10:39:18.067Z,58.56
2023-09-27T10:40:18.013Z,57.99
2023-09-27T10:41:18.054Z,59.35
2023-09-27T10:42:18.115Z,58.43
2023-09-27T10:43:19.396Z,58.23
2023-09-27T10:44:17.977Z,57.97
2023-09-27T10:45:18.144Z,58.03
2023-09-27T10:46:18.038Z,57.97
2023-09-27T10:47:18.006Z,59.22
2023-09-27T10:48:17.972Z,57.61
2023-09-27T10:49:19.819Z,57.61
2023-09-27T10:50:18.146Z,57.93
2023-09-27T10:51:17.931Z,58.88
2023-09-27T10:52:17.949Z,59.61
2023-09-27T10:53:18.044Z,60.80
2023-09-27T10:54:17.902Z,59.58
2023-09-27T10:55:17.885Z,59.18
2023-09-27T10:56:18.104Z,58.75
2023-09-27T10:57:17.890Z,58.40
2023-09-27T10:58:17.922Z,57.09
2023-09-27T10:59:17.897Z,56.04
2023-09-27T11:00:17.855Z,56.27
2023-09-27T11:01:18.461Z,56.00
2023-09-27T11:02:17.873Z,56.49
2023-09-27T11:03:18.027Z,57.09
2023-09-27T11:04:17.898Z,57.21
2023-09-27T11:05:17.843Z,57.31
2023-09-27T11:06:17.803Z,57.76
2023-09-27T11:07:17.804Z,59.53
2023-09-27T11:08:17.829Z,61.15
2023-09-27T11:09:17.820Z,61.75
2023-09-27T11:10:17.772Z,62.12
2023-09-27T11:11:17.904Z,61.59
2023-09-27T11:12:17.979Z,60.30
2023-09-27T11:13:17.756Z,60.72
2023-09-27T11:14:17.826Z,60.13
2023-09-27T11:15:17.741Z,60.07
2023-09-27T11:16:17.747Z,59.49
2023-09-27T11:17:17.822Z,55.97
2023-09-27T11:18:17.851Z,55.87
2023-09-27T11:19:17.724Z,55.70
2023-09-27T11:20:17.702Z,55.35
2023-09-27T11:21:17.765Z,55.13
2023-09-27T11:22:17.710Z,54.17
2023-09-27T11:23:18.062Z,55.58
2023-09-27T11:24:17.672Z,55.51
2023-09-27T11:25:17.676Z,56.13
2023-09-27T11:26:17.706Z,57.51
2023-09-27T11:27:17.697Z,55.70
2023-09-27T11:28:17.668Z,53.89
2023-09-27T11:29:17.676Z,54.56
2023-09-27T11:30:17.665Z,53.62
2023-09-27T11:31:17.682Z,51.72
2023-09-27T11:32:17.647Z,51.72
2023-09-27T11:33:17.651Z,51.00
2023-09-27T11:34:17.661Z,50.81
2023-09-27T11:35:17.646Z,50.81
2023-09-27T11:36:17.725Z,51.47
2023-09-27T11:37:17.608Z,50.81
2023-09-27T11:38:17.621Z,49.21
2023-09-27T11:39:17.581Z,47.12
2023-09-27T11:40:17.599Z,47.58
2023-09-27T11:41:17.904Z,47.74
2023-09-27T11:42:17.562Z,46.31
2023-09-27T11:43:17.573Z,44.82
2023-09-27T11:44:17.580Z,44.68
2023-09-27T11:45:17.587Z,45.05
2023-09-27T11:46:17.644Z,43.76
2023-09-27T11:47:17.550Z,43.15
2023-09-27T11:48:17.633Z,42.54
2023-09-27T11:49:17.531Z,40.53
2023-09-27T11:50:17.585Z,40.60
2023-09-27T11:51:17.648Z,39.29
2023-09-27T11:52:17.777Z,39.47
2023-09-27T11:53:17.511Z,38.20
2023-09-27T11:54:17.541Z,38.63
2023-09-27T11:55:17.483Z,39.31
2023-09-27T11:56:17.981Z,39.61
2023-09-27T11:57:17.482Z,40.82
2023-09-27T11:58:17.464Z,41.31
2023-09-27T11:59:17.482Z,41.92
2023-09-27T12:00:17.878Z,42.41
2023-09-27T12:01:17.560Z,43.41
2023-09-27T12:02:26.777Z,44.02
2023-09-27T12:03:18.532Z,45.09
2023-09-27T12:04:17.669Z,44.37
2023-09-27T12:05:17.630Z,42.85
2023-09-27T12:06:17.610Z,42.44
2023-09-27T12:07:17.830Z,42.11
2023-09-27T12:08:17.410Z,41.50
2023-09-27T12:09:17.391Z,40.78
2023-09-27T12:10:17.408Z,39.69
2023-09-27T12:11:17.427Z,38.48
2023-09-27T12:12:17.373Z,38.38
2023-09-27T12:13:17.384Z,38.30
2023-09-27T12:14:17.389Z,38.90
2023-09-27T12:15:17.354Z,38.82
2023-09-27T12:16:17.433Z,39.33
2023-09-27T12:17:17.391Z,39.90
2023-09-27T12:18:17.812Z,40.00
2023-09-27T12:19:17.348Z,40.21
2023-09-27T12:20:31.575Z,40.09
2023-09-27T12:21:18.344Z,40.29
2023-09-27T12:22:17.304Z,40.50
2023-09-27T12:23:17.310Z,40.31
2023-09-27T12:24:17.308Z,40.23
2023-09-27T12:25:17.293Z,40.56
2023-09-27T12:26:17.316Z,41.86
2023-09-27T12:27:17.276Z,42.56
2023-09-27T12:28:17.276Z,41.86
2023-09-27T12:29:17.694Z,42.54
2023-09-27T12:30:17.244Z,41.25
2023-09-27T12:31:17.315Z,41.93
2023-09-27T12:32:17.267Z,40.17
2023-09-27T12:33:18.728Z,40.09
2023-09-27T12:34:17.283Z,41.00
2023-09-27T12:35:17.242Z,41.99
2023-09-27T12:36:17.228Z,42.60
2023-09-27T12:37:17.210Z,42.43
2023-09-27T12:38:17.480Z,44.35
2023-09-27T12:39:20.682Z,44.84
2023-09-27T12:40:17.745Z,44.84
2023-09-27T12:41:17.204Z,45.43
2023-09-27T12:42:17.175Z,46.39
2023-09-27T12:43:17.184Z,45.90
2023-09-27T12:44:22.196Z,45.09
2023-09-27T12:45:18.185Z,45.19
2023-09-27T12:46:17.197Z,44.41
2023-09-27T12:47:17.164Z,44.70
2023-09-27T12:48:17.231Z,43.43
2023-09-27T12:49:17.137Z,43.84
2023-09-27T12:50:17.212Z,43.86
2023-09-27T12:51:17.129Z,44.87
2023-09-27T12:52:18.090Z,44.47
2023-09-27T12:53:17.176Z,45.65